createdAt,value
2019-01-30T00:02:03.665Z,3.77
2019-01-30T00:04:44.092Z,4.57
2019-01-30T00:07:24.967Z,4.90
2019-01-30T00:10:05.393Z,4.13
2019-01-30T00:12:46.038Z,4.87
2019-01-30T00:15:26.858Z,5.60
2019-01-30T00:18:07.389Z,4.80
2019-01-30T00:20:47.822Z,4.90
2019-01-30T00:23:28.205Z,5.00
2019-01-30T00:26:08.961Z,4.83
2019-01-30T00:28:49.782Z,5.90
2019-01-30T00:31:30.545Z,5.70
2019-01-30T00:34:11.292Z,5.53
2019-01-30T00:36:51.994Z,5.70
2019-01-30T00:39:32.496Z,5.40
2019-01-30T00:42:12.875Z,5.93
2019-01-30T00:44:53.341Z,5.47
2019-01-30T00:47:34.983Z,5.37
2019-01-30T00:50:15.607Z,5.50
2019-01-30T00:52:56.043Z,5.73
2019-01-30T00:55:36.431Z,5.07
2019-01-30T00:58:17.000Z,4.80
2019-01-30T01:00:58.292Z,5.43
2019-01-30T01:03:39.087Z,5.43
2019-01-30T01:06:19.895Z,6.43
2019-01-30T01:09:00.685Z,5.37
2019-01-30T01:11:41.287Z,5.63
2019-01-30T01:14:22.152Z,5.30
2019-01-30T01:17:02.878Z,5.10
2019-01-30T01:19:43.953Z,5.47
2019-01-30T01:22:24.312Z,5.37
2019-01-30T01:25:05.205Z,5.03
2019-01-30T01:27:45.912Z,5.50
2019-01-30T01:30:26.986Z,5.63
2019-01-30T01:33:07.558Z,5.30
2019-01-30T01:35:48.332Z,5.33
2019-01-30T01:38:28.983Z,4.30
2019-01-30T01:41:09.892Z,4.23
2019-01-30T01:43:50.762Z,4.70
2019-01-30T01:46:31.441Z,4.60
2019-01-30T01:49:11.970Z,4.83
2019-01-30T01:51:52.723Z,4.30
2019-01-30T01:54:33.522Z,4.53
2019-01-30T01:57:14.003Z,4.60
2019-01-30T01:59:54.547Z,4.47
2019-01-30T02:02:35.307Z,4.50
2019-01-30T02:05:15.748Z,3.80
2019-01-30T02:07:56.353Z,3.80
2019-01-30T02:10:36.922Z,4.50
2019-01-30T02:13:17.945Z,4.23
2019-01-30T02:15:58.482Z,4.00
2019-01-30T02:18:39.325Z,3.77
2019-01-30T02:21:19.651Z,4.20
2019-01-30T02:24:00.466Z,3.73
2019-01-30T02:26:40.936Z,3.50
2019-01-30T02:29:21.522Z,3.30
2019-01-30T02:32:02.375Z,3.47
2019-01-30T02:34:43.287Z,3.30
2019-01-30T02:37:24.126Z,3.67
2019-01-30T02:40:04.509Z,3.30
2019-01-30T02:42:45.330Z,3.37
2019-01-30T02:45:25.753Z,3.40
2019-01-30T02:48:06.317Z,3.40
2019-01-30T02:50:46.862Z,3.20
2019-01-30T02:53:27.437Z,3.63
2019-01-30T02:56:07.797Z,3.40
2019-01-30T02:58:48.406Z,3.50
2019-01-30T03:01:29.081Z,3.60
2019-01-30T03:04:10.149Z,3.63
2019-01-30T03:06:51.156Z,3.47
2019-01-30T03:09:32.295Z,3.80
2019-01-30T03:12:12.735Z,3.97
2019-01-30T03:14:53.220Z,3.60
2019-01-30T03:17:34.120Z,3.70
2019-01-30T03:20:14.740Z,3.83
2019-01-30T03:22:55.352Z,3.83
2019-01-30T03:25:36.208Z,3.47
2019-01-30T03:28:17.171Z,4.23
2019-01-30T03:30:58.049Z,4.80
2019-01-30T03:33:38.765Z,4.17
2019-01-30T03:36:19.653Z,3.97
2019-01-30T03:39:00.204Z,4.00
2019-01-30T03:41:40.960Z,4.30
2019-01-30T03:44:22.015Z,4.40
2019-01-30T03:47:02.732Z,4.53
2019-01-30T03:49:43.517Z,4.23
2019-01-30T03:52:23.892Z,4.30
2019-01-30T03:55:04.681Z,4.03
2019-01-30T03:57:45.461Z,4.53
2019-01-30T04:00:26.359Z,4.33
2019-01-30T04:03:06.591Z,4.60
2019-01-30T04:05:47.486Z,4.30
2019-01-30T04:08:28.386Z,4.63
2019-01-30T04:11:08.821Z,4.50
2019-01-30T04:13:49.278Z,4.77
2019-01-30T04:16:29.947Z,4.90
2019-01-30T04:19:10.708Z,4.20
2019-01-30T04:21:51.547Z,4.43
2019-01-30T04:24:32.398Z,4.90
2019-01-30T04:27:12.983Z,5.20
2019-01-30T04:29:53.436Z,4.83
2019-01-30T04:32:34.120Z,5.20
2019-01-30T04:35:14.903Z,4.10
2019-01-30T04:37:55.377Z,4.47
2019-01-30T04:40:35.889Z,4.63
2019-01-30T04:43:16.506Z,4.20
2019-01-30T04:45:56.925Z,4.53
2019-01-30T04:48:37.342Z,4.17
2019-01-30T04:51:17.771Z,4.00
2019-01-30T04:53:58.209Z,4.67
2019-01-30T04:56:38.772Z,4.10
2019-01-30T04:59:19.546Z,4.43
2019-01-30T05:02:00.117Z,4.67
2019-01-30T05:04:40.936Z,4.60
2019-01-30T05:07:21.466Z,5.20
2019-01-30T05:10:02.182Z,4.47
2019-01-30T05:12:42.992Z,4.70
2019-01-30T05:15:23.672Z,4.03
2019-01-30T05:18:04.321Z,4.10
2019-01-30T05:20:45.221Z,4.53
2019-01-30T05:23:26.148Z,4.60
2019-01-30T05:26:06.592Z,4.30
2019-01-30T05:28:47.511Z,3.60
2019-01-30T05:31:28.305Z,3.67
2019-01-30T05:34:08.966Z,3.50
2019-01-30T05:36:49.728Z,3.63
2019-01-30T05:39:30.486Z,3.83
2019-01-30T05:42:09.185Z,3.27
2019-01-30T05:44:56.862Z,4.17
2019-01-30T05:47:44.587Z,3.40
2019-01-30T05:50:32.331Z,3.97
2019-01-30T05:53:20.107Z,4.10
2019-01-30T05:56:07.807Z,3.43
2019-01-30T05:58:55.534Z,3.80
2019-01-30T06:01:43.311Z,3.60
2019-01-30T06:04:31.077Z,3.70
2019-01-30T06:07:18.792Z,3.40
2019-01-30T06:10:27.282Z,3.90
2019-01-30T06:13:15.005Z,3.50
2019-01-30T06:16:02.696Z,3.70
2019-01-30T06:18:50.424Z,3.87
2019-01-30T06:21:38.120Z,3.93
2019-01-30T06:24:18.962Z,3.30
2019-01-30T06:26:59.808Z,3.93
2019-01-30T06:29:40.578Z,3.70
2019-01-30T06:32:21.907Z,3.93
2019-01-30T06:35:03.088Z,3.53
2019-01-30T06:37:43.711Z,4.40
2019-01-30T06:40:24.291Z,4.40
2019-01-30T06:43:05.245Z,4.23
2019-01-30T06:45:45.816Z,3.87
2019-01-30T06:48:26.593Z,3.90
2019-01-30T06:51:07.458Z,4.30
2019-01-30T06:53:48.239Z,3.57
2019-01-30T06:56:28.897Z,4.23
2019-01-30T06:59:09.384Z,4.90
2019-01-30T07:01:50.146Z,4.60
2019-01-30T07:04:31.098Z,5.43
2019-01-30T07:07:11.459Z,6.23
2019-01-30T07:09:52.406Z,5.67
2019-01-30T07:12:32.992Z,3.80
2019-01-30T07:15:13.443Z,4.80
2019-01-30T07:17:53.889Z,4.80
2019-01-30T07:20:34.866Z,4.30
2019-01-30T07:23:15.221Z,4.60
2019-01-30T07:25:55.914Z,4.90
2019-01-30T07:28:36.582Z,4.17
2019-01-30T07:31:19.270Z,4.77
2019-01-30T07:34:00.096Z,4.67
2019-01-30T07:36:41.229Z,3.93
2019-01-30T07:39:21.792Z,4.53
2019-01-30T07:42:02.153Z,4.37
2019-01-30T07:44:50.457Z,4.80
2019-01-30T07:47:26.062Z,4.70
2019-01-30T07:50:06.946Z,3.93
2019-01-30T07:52:47.465Z,4.23
2019-01-30T07:55:27.887Z,4.20
2019-01-30T07:58:08.326Z,3.80
2019-01-30T08:00:49.017Z,4.17
2019-01-30T08:03:29.448Z,3.87
2019-01-30T08:06:10.346Z,4.13
2019-01-30T08:08:50.752Z,4.80
2019-01-30T08:11:33.083Z,4.03
2019-01-30T08:14:13.521Z,7.00
2019-01-30T08:16:54.337Z,5.43
2019-01-30T08:19:35.178Z,5.10
2019-01-30T08:22:15.916Z,5.03
2019-01-30T08:24:56.469Z,4.80
2019-01-30T08:27:37.521Z,4.97
2019-01-30T08:30:22.699Z,6.40
2019-01-30T08:33:04.723Z,5.23
2019-01-30T08:35:48.139Z,5.10
2019-01-30T08:41:29.711Z,4.80
2019-01-30T08:44:17.387Z,5.13
2019-01-30T08:47:05.130Z,4.93
2019-01-30T08:49:52.823Z,5.30
2019-01-30T08:52:40.553Z,5.00
2019-01-30T08:55:28.242Z,5.30
2019-01-30T08:58:16.018Z,5.37
2019-01-30T09:01:03.756Z,4.90
2019-01-30T09:03:51.553Z,4.60
2019-01-30T09:06:39.304Z,6.47
2019-01-30T09:09:27.031Z,6.30
2019-01-30T09:12:14.740Z,6.80
2019-01-30T09:15:02.526Z,5.53
2019-01-30T09:17:50.280Z,5.07
2019-01-30T09:20:38.062Z,5.63
2019-01-30T09:23:18.803Z,5.97
2019-01-30T09:25:59.876Z,5.87
2019-01-30T09:28:40.891Z,5.40
2019-01-30T09:31:21.674Z,10.80
2019-01-30T09:34:02.321Z,12.07
2019-01-30T09:36:43.302Z,11.43
2019-01-30T09:39:23.937Z,6.93
2019-01-30T09:42:04.656Z,6.63
2019-01-30T09:44:45.332Z,6.23
2019-01-30T09:47:25.822Z,6.30
2019-01-30T09:50:06.401Z,6.90
2019-01-30T09:52:47.403Z,5.70
2019-01-30T09:55:27.862Z,5.97
2019-01-30T09:58:08.336Z,5.70
2019-01-30T10:00:49.022Z,5.97
2019-01-30T10:03:36.127Z,6.40
2019-01-30T10:06:12.803Z,7.23
2019-01-30T10:08:53.841Z,6.50
2019-01-30T10:11:34.663Z,6.70
2019-01-30T10:14:15.484Z,6.73
2019-01-30T10:16:56.521Z,5.00
2019-01-30T10:19:39.235Z,6.00
2019-01-30T10:22:20.222Z,6.00
2019-01-30T10:25:01.007Z,6.17
2019-01-30T10:27:41.655Z,5.80
2019-01-30T10:30:22.297Z,5.30
2019-01-30T10:33:03.099Z,7.97
2019-01-30T10:35:43.678Z,5.93
2019-01-30T10:38:24.624Z,6.80
2019-01-30T10:41:05.583Z,5.13
2019-01-30T10:43:46.454Z,4.47
2019-01-30T10:46:27.312Z,4.80
2019-01-30T10:49:08.006Z,5.73
2019-01-30T10:51:48.766Z,5.27
2019-01-30T10:54:29.766Z,4.57
2019-01-30T10:57:10.700Z,4.73
2019-01-30T10:59:51.319Z,4.33
2019-01-30T11:02:32.090Z,4.53
2019-01-30T11:05:12.928Z,4.63
2019-01-30T11:07:53.700Z,4.63
2019-01-30T11:10:34.160Z,4.77
2019-01-30T11:13:15.348Z,4.53
2019-01-30T11:15:55.967Z,5.10
2019-01-30T11:18:36.417Z,4.80
2019-01-30T11:21:16.767Z,4.27
2019-01-30T11:23:57.300Z,5.20
2019-01-30T11:26:37.636Z,4.43
2019-01-30T11:29:18.526Z,4.20
2019-01-30T11:31:59.355Z,4.40
2019-01-30T11:34:40.242Z,3.77
2019-01-30T11:37:20.648Z,4.53
2019-01-30T11:40:01.099Z,4.20
2019-01-30T11:42:41.586Z,3.80
2019-01-30T11:45:22.167Z,4.70
2019-01-30T11:48:03.098Z,4.27
2019-01-30T11:50:44.036Z,4.30
2019-01-30T11:53:24.517Z,4.20
2019-01-30T11:56:05.256Z,4.40
2019-01-30T11:58:46.152Z,4.80
2019-01-30T12:01:27.030Z,4.70
2019-01-30T12:04:17.468Z,4.97
2019-01-30T12:06:48.476Z,5.00
2019-01-30T12:09:36.278Z,4.73
2019-01-30T12:12:23.986Z,5.00
2019-01-30T12:15:32.577Z,5.43
2019-01-30T12:18:20.265Z,5.53
2019-01-30T12:21:07.983Z,5.90
2019-01-30T12:23:48.352Z,5.27
2019-01-30T12:26:29.058Z,5.23
2019-01-30T12:29:09.765Z,5.50
2019-01-30T12:31:50.577Z,5.87
2019-01-30T12:34:31.371Z,5.57
2019-01-30T12:37:12.248Z,5.93
2019-01-30T12:39:53.243Z,6.30
2019-01-30T12:42:34.370Z,5.97
2019-01-30T12:45:15.131Z,6.47
2019-01-30T12:47:56.036Z,5.77
2019-01-30T12:50:36.596Z,5.77
2019-01-30T12:53:17.465Z,6.10
2019-01-30T12:55:57.951Z,6.50
2019-01-30T12:58:38.727Z,5.13
2019-01-30T13:01:19.459Z,5.77
2019-01-30T13:04:00.157Z,5.27
2019-01-30T13:06:41.052Z,5.77
2019-01-30T13:09:21.781Z,5.67
2019-01-30T13:12:02.527Z,4.60
2019-01-30T13:14:42.997Z,5.20
2019-01-30T13:17:23.597Z,5.80
2019-01-30T13:20:04.096Z,6.30
2019-01-30T13:22:44.580Z,5.33
2019-01-30T13:25:25.006Z,4.90
2019-01-30T13:28:05.851Z,4.23
2019-01-30T13:30:46.370Z,4.20
2019-01-30T13:33:27.202Z,3.60
2019-01-30T13:36:08.123Z,4.10
2019-01-30T13:38:49.051Z,3.93
2019-01-30T13:41:29.972Z,4.00
2019-01-30T13:44:10.311Z,4.03
2019-01-30T13:46:50.757Z,3.83
2019-01-30T13:49:31.590Z,4.93
2019-01-30T13:52:12.445Z,5.50
2019-01-30T13:54:55.031Z,4.73
2019-01-30T13:57:35.760Z,5.10
2019-01-30T14:00:16.393Z,4.67
2019-01-30T14:02:56.981Z,5.17
2019-01-30T14:05:37.612Z,5.67
2019-01-30T14:08:18.497Z,5.40
2019-01-30T14:10:59.033Z,6.10
2019-01-30T14:13:39.376Z,6.17
2019-01-30T14:16:19.840Z,5.10
2019-01-30T14:19:00.266Z,5.63
2019-01-30T14:21:40.812Z,5.47
2019-01-30T14:24:21.273Z,5.30
2019-01-30T14:27:01.735Z,5.53
2019-01-30T14:29:42.243Z,6.40
2019-01-30T14:32:22.864Z,5.90
2019-01-30T14:35:10.519Z,5.73
2019-01-30T14:37:46.327Z,5.40
2019-01-30T14:40:27.080Z,5.77
2019-01-30T14:43:07.635Z,6.20
2019-01-30T14:45:47.937Z,6.00
2019-01-30T14:48:28.387Z,6.60
2019-01-30T14:51:09.019Z,5.50
2019-01-30T14:53:49.523Z,6.13
2019-01-30T14:56:30.222Z,5.73
2019-01-30T14:59:10.664Z,5.57
2019-01-30T15:01:51.161Z,5.77
2019-01-30T15:04:32.154Z,5.67
2019-01-30T15:07:12.712Z,5.90
2019-01-30T15:09:53.147Z,5.23
2019-01-30T15:12:34.082Z,4.77
2019-01-30T15:15:14.540Z,4.60
2019-01-30T15:17:55.618Z,5.07
2019-01-30T15:20:36.540Z,5.50
2019-01-30T15:23:17.468Z,5.63
2019-01-30T15:25:58.192Z,5.10
2019-01-30T15:28:38.747Z,5.17
2019-01-30T15:31:19.697Z,5.67
2019-01-30T15:34:00.486Z,6.23
2019-01-30T15:36:41.313Z,5.30
2019-01-30T15:39:22.122Z,5.50
2019-01-30T15:42:02.809Z,5.70
2019-01-30T15:44:43.611Z,5.37
2019-01-30T15:47:24.191Z,4.80
2019-01-30T15:50:04.960Z,6.30
2019-01-30T15:52:45.532Z,5.07
2019-01-30T15:55:26.506Z,5.03
2019-01-30T15:58:07.213Z,5.03
2019-01-30T16:00:47.880Z,5.20
2019-01-30T16:03:28.846Z,5.87
2019-01-30T16:06:09.637Z,4.97
2019-01-30T16:08:50.609Z,5.27
2019-01-30T16:11:31.221Z,6.40
2019-01-30T16:14:12.026Z,5.30
2019-01-30T16:16:52.626Z,5.20
2019-01-30T16:19:33.646Z,4.77
2019-01-30T16:22:14.444Z,4.93
2019-01-30T16:24:55.246Z,4.70
2019-01-30T16:27:35.823Z,4.73
2019-01-30T16:30:16.476Z,4.73
2019-01-30T16:32:57.303Z,4.63
2019-01-30T16:35:38.103Z,4.57
2019-01-30T16:38:18.506Z,4.97
2019-01-30T16:40:59.235Z,5.07
2019-01-30T16:43:39.717Z,4.80
2019-01-30T16:46:20.263Z,4.90
2019-01-30T16:49:00.767Z,4.93
2019-01-30T16:51:41.171Z,5.77
2019-01-30T16:54:21.718Z,5.53
2019-01-30T16:57:02.654Z,5.17
2019-01-30T16:59:43.201Z,6.50
2019-01-30T17:02:23.771Z,7.30
2019-01-30T17:05:04.197Z,12.57
2019-01-30T17:07:45.115Z,10.07
2019-01-30T17:10:25.712Z,9.00
2019-01-30T17:13:06.351Z,11.30
2019-01-30T17:15:47.043Z,7.67
2019-01-30T17:18:28.017Z,9.60
2019-01-30T17:21:08.520Z,10.43
2019-01-30T17:23:49.433Z,13.60
2019-01-30T17:26:29.972Z,12.87
2019-01-30T17:29:10.520Z,15.13
2019-01-30T17:31:51.307Z,17.20
2019-01-30T17:34:31.701Z,22.20
2019-01-30T17:37:12.721Z,17.83
2019-01-30T17:39:53.593Z,12.47
2019-01-30T17:42:34.431Z,9.27
2019-01-30T17:45:14.868Z,8.00
2019-01-30T17:47:55.750Z,8.20
2019-01-30T17:50:36.384Z,7.50
2019-01-30T17:53:16.763Z,8.20
2019-01-30T17:55:57.821Z,7.20
2019-01-30T17:58:38.417Z,9.10
2019-01-30T18:01:19.214Z,8.17
2019-01-30T18:03:59.853Z,9.37
2019-01-30T18:06:40.697Z,8.00
2019-01-30T18:09:21.904Z,8.60
2019-01-30T18:15:14.841Z,9.40
2019-01-30T18:17:55.757Z,9.23
2019-01-30T18:20:36.635Z,10.07
2019-01-30T18:23:17.485Z,10.20
2019-01-30T18:26:01.152Z,10.83
2019-01-30T18:28:41.075Z,11.37
2019-01-30T18:31:21.836Z,9.90
2019-01-30T18:34:02.437Z,9.37
2019-01-30T18:36:43.258Z,10.20
2019-01-30T18:39:24.221Z,10.23
2019-01-30T18:42:04.877Z,11.03
2019-01-30T18:44:45.664Z,11.67
2019-01-30T18:47:26.441Z,12.90
2019-01-30T18:50:07.348Z,12.83
2019-01-30T18:52:47.854Z,11.63
2019-01-30T18:55:30.939Z,13.07
2019-01-30T18:58:08.810Z,12.60
2019-01-30T19:00:56.572Z,12.93
2019-01-30T19:03:44.291Z,11.40
2019-01-30T19:06:32.008Z,11.63
2019-01-30T19:12:26.489Z,10.90
2019-01-30T19:15:33.600Z,10.63
2019-01-30T19:18:21.345Z,10.87
2019-01-30T19:21:16.441Z,10.70
2019-01-30T19:24:04.120Z,10.30
2019-01-30T19:26:51.850Z,9.93
2019-01-30T19:29:39.551Z,10.77
2019-01-30T19:32:27.048Z,11.90
2019-01-30T19:35:16.450Z,11.47
2019-01-30T19:38:04.549Z,12.07
2019-01-30T19:43:47.853Z,11.30
2019-01-30T19:46:35.657Z,11.70
2019-01-30T19:49:16.772Z,12.83
2019-01-30T19:51:57.394Z,11.10
2019-01-30T19:54:38.180Z,11.87
2019-01-30T19:57:18.837Z,12.00
2019-01-30T19:59:59.804Z,11.40
2019-01-30T20:02:40.428Z,11.97
2019-01-30T20:05:21.475Z,11.93
2019-01-30T20:08:02.351Z,12.73
2019-01-30T20:10:43.152Z,13.53
2019-01-30T20:13:23.918Z,13.57
2019-01-30T20:16:04.686Z,13.90
2019-01-30T20:18:45.427Z,14.80
2019-01-30T20:21:26.164Z,15.43
2019-01-30T20:24:06.787Z,16.10
2019-01-30T20:26:47.626Z,16.30
2019-01-30T20:29:28.602Z,16.50
2019-01-30T20:32:09.367Z,17.17
2019-01-30T20:34:50.207Z,19.03
2019-01-30T20:37:30.817Z,18.00
2019-01-30T20:40:11.125Z,18.97
2019-01-30T20:42:52.880Z,18.93
2019-01-30T20:45:34.220Z,19.27
2019-01-30T20:48:14.476Z,19.53
2019-01-30T20:50:55.205Z,19.63
2019-01-30T20:53:35.960Z,19.63
2019-01-30T20:56:16.786Z,19.97
2019-01-30T20:58:57.799Z,20.20
2019-01-30T21:01:38.616Z,21.23
2019-01-30T21:04:19.378Z,21.47
2019-01-30T21:07:00.204Z,21.30
2019-01-30T21:09:41.085Z,21.23
2019-01-30T21:12:22.162Z,24.47
2019-01-30T21:15:03.038Z,24.73
2019-01-30T21:17:43.886Z,22.33
2019-01-30T21:20:24.317Z,24.00
2019-01-30T21:23:04.846Z,22.20
2019-01-30T21:25:45.521Z,22.70
2019-01-30T21:28:26.198Z,23.87
2019-01-30T21:31:07.017Z,22.63
2019-01-30T21:33:47.722Z,21.93
2019-01-30T21:36:28.661Z,24.37
2019-01-30T21:39:09.190Z,23.10
2019-01-30T21:41:49.725Z,22.73
2019-01-30T21:44:30.582Z,23.40
2019-01-30T21:47:11.337Z,21.63
2019-01-30T21:49:51.936Z,23.63
2019-01-30T21:52:32.359Z,24.70
2019-01-30T21:55:12.602Z,23.87
2019-01-30T21:57:53.143Z,23.20
2019-01-30T22:00:34.053Z,24.23
2019-01-30T22:03:14.852Z,21.33
2019-01-30T22:05:55.730Z,21.20
2019-01-30T22:08:36.631Z,21.50
2019-01-30T22:11:17.152Z,22.00
2019-01-30T22:13:57.813Z,22.67
2019-01-30T22:16:38.746Z,26.97
2019-01-30T22:19:19.763Z,23.90
2019-01-30T22:22:00.445Z,23.93
2019-01-30T22:24:41.282Z,22.87
2019-01-30T22:27:22.112Z,25.00
2019-01-30T22:30:02.777Z,21.80
2019-01-30T22:32:43.351Z,24.33
2019-01-30T22:35:23.964Z,24.30
2019-01-30T22:38:12.242Z,25.67
2019-01-30T22:40:47.045Z,22.13
2019-01-30T22:43:27.813Z,24.33
2019-01-30T22:46:08.241Z,21.83
2019-01-30T22:48:49.157Z,22.80
2019-01-30T22:51:30.075Z,20.17
2019-01-30T22:54:11.062Z,20.90
2019-01-30T22:56:51.875Z,17.83
2019-01-30T22:59:32.660Z,18.70
2019-01-30T23:02:13.302Z,18.60
2019-01-30T23:04:54.132Z,20.70
2019-01-30T23:07:35.181Z,21.50
2019-01-30T23:10:15.828Z,21.17
2019-01-30T23:12:56.483Z,20.67
2019-01-30T23:15:37.361Z,20.67
2019-01-30T23:18:18.047Z,19.83
2019-01-30T23:20:58.652Z,19.53
2019-01-30T23:23:38.953Z,20.00
2019-01-30T23:26:19.788Z,20.90
2019-01-30T23:29:00.601Z,22.23
2019-01-30T23:31:41.157Z,22.40
2019-01-30T23:34:21.796Z,19.90
2019-01-30T23:37:02.227Z,22.80
2019-01-30T23:39:42.851Z,20.57
2019-01-30T23:42:23.425Z,20.57
2019-01-30T23:45:04.140Z,17.20
2019-01-30T23:47:44.690Z,15.83
2019-01-30T23:50:25.512Z,14.60
2019-01-30T23:53:06.000Z,18.40
2019-01-30T23:55:46.626Z,15.97
2019-01-30T23:58:27.385Z,13.13
